createdAt,value
2023-01-10T00:00:00.825Z,98532.75
2023-01-10T00:02:28.415Z,98532.28
2023-01-10T00:04:56.321Z,98544.16
2023-01-10T00:07:23.880Z,98546.06
2023-01-10T00:09:51.655Z,98539.97
2023-01-10T00:12:37.926Z,98538.13
2023-01-10T00:15:06.556Z,98545.06
2023-01-10T00:17:34.174Z,98550.03
2023-01-10T00:20:01.971Z,98564.59
2023-01-10T00:22:29.496Z,98564.97
2023-01-10T00:24:57.297Z,98563.44
2023-01-10T00:27:25.202Z,98569.63
2023-01-10T00:29:53.049Z,98568.88
2023-01-10T00:32:21.562Z,98563.53
2023-01-10T00:34:49.553Z,98567.31
2023-01-10T00:37:17.081Z,98566.94
2023-01-10T00:39:44.927Z,98561.25
2023-01-10T00:42:31.090Z,98573.53
2023-01-10T00:44:58.992Z,98561.28
2023-01-10T00:47:26.575Z,98561.72
2023-01-10T00:49:54.521Z,98564.41
2023-01-10T00:52:22.064Z,98575.09
2023-01-10T00:54:49.970Z,98576.59
2023-01-10T00:57:17.550Z,98579.63
2023-01-10T00:59:45.601Z,98583.44
2023-01-10T01:02:13.206Z,98581.56
2023-01-10T01:04:41.424Z,98588.78
2023-01-10T01:07:11.203Z,98590.28
2023-01-10T01:09:59.061Z,98581.06
2023-01-10T01:12:26.735Z,98591.78
2023-01-10T01:14:54.604Z,98592.53
2023-01-10T01:17:22.127Z,98596.72
2023-01-10T01:19:49.958Z,98613.13
2023-01-10T01:22:17.449Z,98610.75
2023-01-10T01:24:45.437Z,98617.63
2023-01-10T01:27:12.989Z,98622.97
2023-01-10T01:29:43.308Z,98620.00
2023-01-10T01:32:11.232Z,98611.59
2023-01-10T01:34:39.377Z,98618.53
2023-01-10T01:37:07.096Z,98620.84
2023-01-10T01:39:34.918Z,98623.94
2023-01-10T01:42:02.666Z,98618.59
2023-01-10T01:44:35.741Z,98625.47
2023-01-10T01:47:08.118Z,98632.69
2023-01-10T01:49:41.127Z,98628.50
2023-01-10T01:52:23.281Z,98641.47
2023-01-10T01:54:55.329Z,98686.56
2023-01-10T01:57:28.057Z,98718.63
2023-01-10T01:59:56.605Z,98738.47
2023-01-10T02:02:31.909Z,98745.25
2023-01-10T02:05:05.797Z,98757.06
2023-01-10T02:07:37.963Z,98730.69
2023-01-10T02:10:23.270Z,98732.28
2023-01-10T02:12:54.835Z,98768.31
2023-01-10T02:15:22.829Z,98764.59
2023-01-10T02:17:52.555Z,98763.09
2023-01-10T02:20:22.789Z,98760.09
2023-01-10T02:23:32.408Z,98760.16
2023-01-10T02:26:24.858Z,98781.66
2023-01-10T02:29:03.961Z,98777.81
2023-01-10T02:31:59.174Z,98783.19
2023-01-10T02:34:49.802Z,98790.09
2023-01-10T02:37:45.475Z,98787.06
2023-01-10T02:40:52.171Z,98777.88
2023-01-10T02:43:50.477Z,98776.38
2023-01-10T02:46:25.610Z,98786.38
2023-01-10T02:48:55.059Z,98791.38
2023-01-10T02:51:29.194Z,98795.53
2023-01-10T02:54:08.149Z,98811.97
2023-01-10T02:56:47.562Z,98820.75
2023-01-10T02:59:56.176Z,98828.38
2023-01-10T03:03:09.010Z,98846.00
2023-01-10T03:06:07.924Z,98861.53
2023-01-10T03:08:38.756Z,98870.56
2023-01-10T03:11:10.156Z,98882.66
2023-01-10T03:13:57.480Z,98881.16
2023-01-10T03:16:29.468Z,98886.06
2023-01-10T03:19:02.418Z,98898.53
2023-01-10T03:21:32.723Z,98898.22
2023-01-10T03:24:17.651Z,98908.88
2023-01-10T03:27:09.218Z,98911.00
2023-01-10T03:30:04.138Z,98912.88
2023-01-10T03:32:33.158Z,98915.72
2023-01-10T03:35:03.228Z,98924.22
2023-01-10T03:37:49.634Z,98920.66
2023-01-10T03:40:55.057Z,98929.91
2023-01-10T03:44:37.717Z,98934.91
2023-01-10T03:47:32.670Z,98955.53
2023-01-10T03:50:35.561Z,98963.63
2023-01-10T03:53:03.316Z,98970.97
2023-01-10T03:55:32.797Z,98984.72
2023-01-10T03:58:00.275Z,98987.94
2023-01-10T04:00:28.201Z,99001.34
2023-01-10T04:02:57.701Z,98994.28
2023-01-10T04:05:26.625Z,98997.06
2023-01-10T04:07:54.149Z,98974.16
2023-01-10T04:10:23.442Z,98982.69
2023-01-10T04:12:52.977Z,98978.38
2023-01-10T04:15:20.882Z,98981.72
2023-01-10T04:17:49.216Z,98990.00
2023-01-10T04:20:17.334Z,98999.81
2023-01-10T04:22:46.366Z,98994.31
2023-01-10T04:25:14.320Z,98998.09
2023-01-10T04:27:42.086Z,99006.25
2023-01-10T04:30:10.719Z,99006.59
2023-01-10T04:32:38.526Z,99008.84
2023-01-10T04:35:07.094Z,99038.97
2023-01-10T04:37:34.913Z,99039.22
2023-01-10T04:40:02.868Z,99050.47
2023-01-10T04:42:30.545Z,99090.28
2023-01-10T04:44:58.470Z,99053.06
2023-01-10T04:47:26.040Z,99037.72
2023-01-10T04:49:53.815Z,99035.75
2023-01-10T04:52:21.462Z,99012.22
2023-01-10T04:54:49.260Z,98992.75
2023-01-10T04:57:18.124Z,98994.28
2023-01-10T04:59:46.083Z,98995.66
2023-01-10T05:02:13.790Z,99003.19
2023-01-10T05:04:41.835Z,99022.72
2023-01-10T05:07:09.311Z,99026.84
2023-01-10T05:09:37.170Z,99031.06
2023-01-10T05:12:05.013Z,99050.56
2023-01-10T05:14:33.027Z,99086.91
2023-01-10T05:17:00.775Z,99117.31
2023-01-10T05:19:28.788Z,99108.31
2023-01-10T05:21:56.337Z,99087.09
2023-01-10T05:24:24.240Z,99107.75
2023-01-10T05:26:51.738Z,99094.00
2023-01-10T05:29:19.506Z,99101.13
2023-01-10T05:31:47.092Z,99086.81
2023-01-10T05:34:14.930Z,99098.19
2023-01-10T05:36:42.698Z,99084.38
2023-01-10T05:39:10.533Z,99076.28
2023-01-10T05:41:38.082Z,99078.50
2023-01-10T05:44:05.973Z,99079.53
2023-01-10T05:46:33.768Z,99081.88
2023-01-10T05:49:01.633Z,99094.94
2023-01-10T05:51:29.193Z,99090.69
2023-01-10T05:53:58.638Z,99092.81
2023-01-10T05:56:26.615Z,99121.06
2023-01-10T05:59:05.288Z,99124.66
2023-01-10T06:01:34.195Z,99122.00
2023-01-10T06:04:02.191Z,99133.03
2023-01-10T06:06:29.705Z,99140.22
2023-01-10T06:08:59.095Z,99152.00
2023-01-10T06:11:30.152Z,99160.97
2023-01-10T06:13:58.630Z,99155.00
2023-01-10T06:16:26.210Z,99159.78
2023-01-10T06:18:54.412Z,99176.28
2023-01-10T06:21:21.992Z,99177.75
2023-01-10T06:23:49.883Z,99177.28
2023-01-10T06:26:18.688Z,99176.41
2023-01-10T06:28:46.564Z,99187.41
2023-01-10T06:31:15.204Z,99209.56
2023-01-10T06:33:44.127Z,99212.34
2023-01-10T06:36:12.072Z,99224.56
2023-01-10T06:38:40.048Z,99245.53
2023-01-10T06:41:13.740Z,99251.84
2023-01-10T06:43:46.959Z,99249.16
2023-01-10T06:46:17.899Z,99260.47
2023-01-10T06:48:46.996Z,99261.56
2023-01-10T06:51:19.807Z,99274.13
2023-01-10T06:53:48.289Z,99257.81
2023-01-10T06:56:15.920Z,99258.47
2023-01-10T06:59:01.966Z,99269.31
2023-01-10T07:01:32.396Z,99279.53
2023-01-10T07:04:00.410Z,99276.41
2023-01-10T07:06:28.027Z,99275.72
2023-01-10T07:08:56.686Z,99274.84
2023-01-10T07:11:24.236Z,99287.94
2023-01-10T07:13:54.046Z,99300.59
2023-01-10T07:16:21.481Z,99288.81
2023-01-10T07:18:49.331Z,99291.03
2023-01-10T07:21:18.261Z,99301.69
2023-01-10T07:23:50.674Z,99296.25
2023-01-10T07:26:19.690Z,99311.34
2023-01-10T07:29:34.058Z,99316.53
2023-01-10T07:32:27.471Z,99313.66
2023-01-10T07:34:56.047Z,99325.19
2023-01-10T07:37:23.770Z,99324.53
2023-01-10T07:39:52.471Z,99329.34
2023-01-10T07:42:19.963Z,99321.25
2023-01-10T07:44:49.498Z,99347.56
2023-01-10T07:47:17.873Z,99332.56
2023-01-10T07:49:45.728Z,99347.56
2023-01-10T07:52:13.234Z,99351.41
2023-01-10T07:54:41.036Z,99345.19
2023-01-10T07:57:23.939Z,99352.25
2023-01-10T07:59:53.249Z,99351.69
2023-01-10T08:02:56.867Z,99359.75
2023-01-10T08:05:26.287Z,99374.19
2023-01-10T08:07:55.351Z,99390.44
2023-01-10T08:10:23.279Z,99389.09
2023-01-10T08:12:50.844Z,99384.38
2023-01-10T08:15:18.743Z,99381.78
2023-01-10T08:17:46.464Z,99383.88
2023-01-10T08:20:14.577Z,99382.66
2023-01-10T08:22:42.353Z,99387.06
2023-01-10T08:25:11.027Z,99382.84
2023-01-10T08:27:56.644Z,99383.38
2023-01-10T08:30:29.393Z,99398.63
2023-01-10T08:33:33.197Z,99407.25
2023-01-10T08:36:29.012Z,99402.44
2023-01-10T08:38:56.833Z,99411.53
2023-01-10T08:41:24.760Z,99413.59
2023-01-10T08:43:52.989Z,99418.41
2023-01-10T08:46:21.145Z,99434.19
2023-01-10T08:48:50.450Z,99441.41
2023-01-10T08:51:18.761Z,99439.00
2023-01-10T08:53:46.307Z,99450.44
2023-01-10T08:56:14.459Z,99464.09
2023-01-10T08:58:42.586Z,99464.09
2023-01-10T09:01:13.055Z,99450.56
2023-01-10T09:03:41.091Z,99451.50
2023-01-10T09:06:09.546Z,99448.97
2023-01-10T09:08:38.222Z,99454.03
2023-01-10T09:11:06.584Z,99440.84
2023-01-10T09:13:34.414Z,99450.19
2023-01-10T09:16:02.344Z,99446.22
2023-01-10T09:18:29.996Z,99447.31
2023-01-10T09:20:57.986Z,99450.06
2023-01-10T09:23:25.681Z,99451.75
2023-01-10T09:25:57.921Z,99442.78
2023-01-10T09:28:26.265Z,99442.00
2023-01-10T09:30:54.204Z,99453.03
2023-01-10T09:33:21.863Z,99454.97
2023-01-10T09:35:49.870Z,99456.06
2023-01-10T09:38:19.533Z,99456.28
2023-01-10T09:41:31.991Z,99461.81
2023-01-10T09:44:03.283Z,99464.69
2023-01-10T09:47:21.990Z,99468.34
2023-01-10T09:50:39.412Z,99458.88
2023-01-10T09:53:21.907Z,99446.28
2023-01-10T09:55:55.180Z,99450.56
2023-01-10T09:58:31.215Z,99441.25
2023-01-10T10:01:21.728Z,99436.69
2023-01-10T10:04:14.924Z,99429.56
2023-01-10T10:06:43.363Z,99432.16
2023-01-10T10:09:31.387Z,99427.28
2023-01-10T10:12:23.096Z,99424.22
2023-01-10T10:15:21.334Z,99431.53
2023-01-10T10:18:54.213Z,99424.38
2023-01-10T10:21:59.068Z,99430.28
2023-01-10T10:24:47.558Z,99440.28
2023-01-10T10:27:24.147Z,99443.47
2023-01-10T10:30:16.123Z,99440.03
2023-01-10T10:33:01.678Z,99434.19
2023-01-10T10:35:43.243Z,99437.13
2023-01-10T10:38:25.449Z,99443.44
2023-01-10T10:40:55.047Z,99446.66
2023-01-10T10:43:33.256Z,99437.47
2023-01-10T10:46:13.915Z,99436.47
2023-01-10T10:48:57.632Z,99428.13
2023-01-10T10:51:48.151Z,99433.78
2023-01-10T10:54:16.626Z,99436.41
2023-01-10T10:56:45.023Z,99435.72
2023-01-10T10:59:19.308Z,99425.03
2023-01-10T11:01:49.981Z,99427.94
2023-01-10T11:04:23.491Z,99411.53
2023-01-10T11:06:52.157Z,99420.59
2023-01-10T11:09:27.209Z,99422.09
2023-01-10T11:11:56.919Z,99415.44
2023-01-10T11:14:49.292Z,99426.28
2023-01-10T11:17:22.940Z,99424.38
2023-01-10T11:20:04.552Z,99428.41
2023-01-10T11:22:52.054Z,99435.81
2023-01-10T11:25:23.023Z,99441.25
2023-01-10T11:28:03.475Z,99435.47
2023-01-10T11:30:33.721Z,99441.50
2023-01-10T11:33:08.541Z,99441.50
2023-01-10T11:35:42.242Z,99449.53
2023-01-10T11:38:22.265Z,99440.44
2023-01-10T11:41:02.618Z,99447.47
2023-01-10T11:43:38.850Z,99441.25
2023-01-10T11:46:17.464Z,99442.84
2023-01-10T11:49:07.261Z,99427.91
2023-01-10T11:51:47.477Z,99421.44
2023-01-10T11:54:21.978Z,99422.69
2023-01-10T11:57:28.192Z,99422.91
2023-01-10T12:00:05.629Z,99422.44
2023-01-10T12:02:45.025Z,99430.88
2023-01-10T12:05:21.680Z,99427.56
2023-01-10T12:08:06.388Z,99435.78
2023-01-10T12:10:36.274Z,99453.19
2023-01-10T12:13:17.356Z,99448.47
2023-01-10T12:15:47.057Z,99462.31
2023-01-10T12:18:18.524Z,99458.75
2023-01-10T12:20:52.148Z,99458.53
2023-01-10T12:23:24.699Z,99473.00
2023-01-10T12:26:07.166Z,99464.78
2023-01-10T12:28:53.190Z,99465.97
2023-01-10T12:31:23.460Z,99478.84
2023-01-10T12:33:59.702Z,99470.97
2023-01-10T12:36:56.487Z,99459.16
2023-01-10T12:39:35.127Z,99460.16
2023-01-10T12:42:27.156Z,99462.72
2023-01-10T12:45:21.259Z,99472.69
2023-01-10T12:48:25.997Z,99459.63
2023-01-10T12:51:08.045Z,99473.16
2023-01-10T12:53:57.645Z,99461.69
2023-01-10T12:56:26.115Z,99470.69
2023-01-10T12:59:01.696Z,99468.94
2023-01-10T13:01:40.654Z,99461.81
2023-01-10T13:04:14.501Z,99463.84
2023-01-10T13:06:44.846Z,99483.41
2023-01-10T13:09:18.837Z,99481.59
2023-01-10T13:12:01.189Z,99483.81
2023-01-10T13:14:44.155Z,99489.38
2023-01-10T13:17:32.323Z,99498.59
2023-01-10T13:20:23.304Z,99499.00
2023-01-10T13:22:57.426Z,99496.94
2023-01-10T13:25:26.612Z,99511.56
2023-01-10T13:28:06.010Z,99510.69
2023-01-10T13:30:37.529Z,99486.91
2023-01-10T13:33:20.900Z,99503.50
2023-01-10T13:35:49.285Z,99488.16
2023-01-10T13:38:51.646Z,99490.50
2023-01-10T13:41:38.911Z,99501.03
2023-01-10T13:44:12.773Z,99480.94
2023-01-10T13:46:46.823Z,99492.50
2023-01-10T13:49:14.455Z,99490.91
2023-01-10T13:52:27.323Z,99496.00
2023-01-10T13:55:03.670Z,99512.63
2023-01-10T13:57:57.663Z,99514.97
2023-01-10T14:01:12.131Z,99501.63
2023-01-10T14:03:58.489Z,99515.25
2023-01-10T14:06:29.522Z,99513.44
2023-01-10T14:09:25.864Z,99517.16
2023-01-10T14:12:01.836Z,99530.78
2023-01-10T14:14:39.846Z,99525.91
2023-01-10T14:17:19.295Z,99532.28
2023-01-10T14:19:50.681Z,99539.16
2023-01-10T14:22:35.245Z,99535.00
2023-01-10T14:25:17.623Z,99540.50
2023-01-10T14:27:52.996Z,99540.78
2023-01-10T14:30:39.405Z,99541.25
2023-01-10T14:33:22.171Z,99555.38
2023-01-10T14:36:01.009Z,99556.84
2023-01-10T14:38:37.617Z,99554.31
2023-01-10T14:41:12.645Z,99546.44
2023-01-10T14:43:49.735Z,99550.97
2023-01-10T14:46:48.889Z,99560.19
2023-01-10T14:49:37.351Z,99555.19
2023-01-10T14:52:23.817Z,99554.09
2023-01-10T14:55:18.248Z,99558.75
2023-01-10T14:57:58.752Z,99561.91
2023-01-10T15:00:26.672Z,99566.59
2023-01-10T15:02:54.655Z,99560.53
2023-01-10T15:05:28.611Z,99552.59
2023-01-10T15:08:22.382Z,99549.16
2023-01-10T15:10:55.867Z,99562.28
2023-01-10T15:13:28.408Z,99561.63
2023-01-10T15:15:57.075Z,99547.84
2023-01-10T15:18:44.350Z,99566.16
2023-01-10T15:21:14.452Z,99566.94
2023-01-10T15:23:45.068Z,99564.41
2023-01-10T15:26:18.559Z,99568.25
2023-01-10T15:29:05.612Z,99565.25
2023-01-10T15:31:38.403Z,99577.06
2023-01-10T15:34:16.607Z,99581.13
2023-01-10T15:36:49.992Z,99570.06
2023-01-10T15:39:28.640Z,99583.03
2023-01-10T15:42:09.874Z,99585.53
2023-01-10T15:44:45.722Z,99576.63
2023-01-10T15:47:41.605Z,99572.97
2023-01-10T15:50:28.691Z,99581.06
2023-01-10T15:53:01.281Z,99585.00
2023-01-10T15:55:39.547Z,99591.91
2023-01-10T15:58:28.560Z,99572.09
2023-01-10T16:00:58.640Z,99584.63
2023-01-10T16:03:45.360Z,99584.19
2023-01-10T16:06:36.489Z,99598.50
2023-01-10T16:09:17.671Z,99595.53
2023-01-10T16:12:11.808Z,99592.06
2023-01-10T16:14:39.742Z,99607.94
2023-01-10T16:17:07.549Z,99601.69
2023-01-10T16:19:35.462Z,99599.75
2023-01-10T16:22:03.213Z,99607.69
2023-01-10T16:24:35.162Z,99612.69
2023-01-10T16:27:06.411Z,99612.06
2023-01-10T16:29:34.816Z,99615.19
2023-01-10T16:32:02.394Z,99616.16
2023-01-10T16:34:33.986Z,99615.09
2023-01-10T16:37:01.513Z,99615.88
2023-01-10T16:39:29.463Z,99613.81
2023-01-10T16:42:15.599Z,99611.25
2023-01-10T16:44:44.344Z,99616.88
2023-01-10T16:47:11.898Z,99619.53
2023-01-10T16:49:41.790Z,99610.31
2023-01-10T16:52:14.153Z,99614.09
2023-01-10T16:54:42.550Z,99614.47
2023-01-10T16:57:12.226Z,99607.09
2023-01-10T16:59:40.666Z,99619.13
2023-01-10T17:02:18.018Z,99615.00
2023-01-10T17:04:46.193Z,99607.38
2023-01-10T17:07:13.792Z,99610.22
2023-01-10T17:09:41.710Z,99611.13
2023-01-10T17:12:19.447Z,99620.22
2023-01-10T17:14:48.330Z,99626.31
2023-01-10T17:17:15.873Z,99628.38
2023-01-10T17:19:44.728Z,99635.88
2023-01-10T17:22:12.437Z,99619.00
2023-01-10T17:24:40.571Z,99618.72
2023-01-10T17:27:08.227Z,99614.78
2023-01-10T17:29:36.141Z,99600.84
2023-01-10T17:32:03.959Z,99607.72
2023-01-10T17:34:37.281Z,99599.63
2023-01-10T17:37:05.925Z,99602.91
2023-01-10T17:39:34.710Z,99621.84
2023-01-10T17:42:02.447Z,99606.16
2023-01-10T17:44:30.403Z,99605.97
2023-01-10T17:46:58.860Z,99617.38
2023-01-10T17:49:27.571Z,99605.34
2023-01-10T17:51:55.496Z,99615.34
2023-01-10T17:54:23.493Z,99621.78
2023-01-10T17:56:50.950Z,99628.50
2023-01-10T17:59:19.411Z,99632.84
2023-01-10T18:01:47.078Z,99621.69
2023-01-10T18:04:14.995Z,99630.94
2023-01-10T18:06:42.631Z,99629.97
2023-01-10T18:09:11.817Z,99645.09
2023-01-10T18:11:40.536Z,99627.59
2023-01-10T18:14:27.009Z,99624.69
2023-01-10T18:16:54.588Z,99628.31
2023-01-10T18:19:22.770Z,99625.78
2023-01-10T18:21:50.272Z,99632.78
2023-01-10T18:24:18.214Z,99632.63
2023-01-10T18:26:47.889Z,99635.38
2023-01-10T18:29:15.748Z,99642.72
2023-01-10T18:31:43.304Z,99641.97
2023-01-10T18:34:11.205Z,99645.91
2023-01-10T18:36:40.082Z,99649.16
2023-01-10T18:39:07.991Z,99646.94
2023-01-10T18:41:35.570Z,99645.06
2023-01-10T18:44:03.541Z,99654.19
2023-01-10T18:46:32.422Z,99656.41
2023-01-10T18:49:01.577Z,99649.84
2023-01-10T18:51:32.060Z,99661.59
2023-01-10T18:54:00.146Z,99657.19
2023-01-10T18:56:27.884Z,99662.78
2023-01-10T18:58:58.720Z,99665.38
2023-01-10T19:01:26.565Z,99669.63
2023-01-10T19:03:54.520Z,99671.00
2023-01-10T19:06:22.939Z,99674.72
2023-01-10T19:08:51.944Z,99674.41
2023-01-10T19:11:20.214Z,99677.06
2023-01-10T19:13:52.132Z,99678.16
2023-01-10T19:16:29.450Z,99687.53
2023-01-10T19:19:03.862Z,99695.78
2023-01-10T19:21:33.981Z,99697.84
2023-01-10T19:24:24.292Z,99688.81
2023-01-10T19:26:52.262Z,99698.34
2023-01-10T19:29:20.322Z,99703.03
2023-01-10T19:31:50.132Z,99710.84
2023-01-10T19:34:18.578Z,99707.19
2023-01-10T19:36:46.715Z,99715.94
2023-01-10T19:39:15.151Z,99717.66
2023-01-10T19:41:43.195Z,99717.66
2023-01-10T19:44:16.925Z,99716.25
2023-01-10T19:46:47.559Z,99722.97
2023-01-10T19:49:19.707Z,99729.22
2023-01-10T19:51:51.410Z,99735.66
2023-01-10T19:54:19.989Z,99739.88
2023-01-10T19:56:47.735Z,99742.56
2023-01-10T19:59:17.795Z,99754.97
2023-01-10T20:01:45.622Z,99756.72
2023-01-10T20:04:14.086Z,99753.88
2023-01-10T20:06:47.105Z,99753.53
2023-01-10T20:09:19.444Z,99770.59
2023-01-10T20:11:48.083Z,99760.13
2023-01-10T20:14:19.286Z,99759.34
2023-01-10T20:16:48.749Z,99769.69
2023-01-10T20:19:17.501Z,99771.09
2023-01-10T20:21:45.857Z,99776.72
2023-01-10T20:24:20.280Z,99784.22
2023-01-10T20:26:50.801Z,99781.91
2023-01-10T20:29:22.455Z,99787.72
2023-01-10T20:31:55.804Z,99799.31
2023-01-10T20:34:24.741Z,99787.69
2023-01-10T20:36:52.570Z,99802.72
2023-01-10T20:39:22.494Z,99809.78
2023-01-10T20:41:50.177Z,99804.44
2023-01-10T20:44:18.334Z,99810.25
2023-01-10T20:46:45.967Z,99803.53
2023-01-10T20:49:14.463Z,99826.13
2023-01-10T20:51:42.779Z,99826.44
2023-01-10T20:54:12.124Z,99819.28
2023-01-10T20:56:40.818Z,99826.31
2023-01-10T20:59:08.926Z,99825.53
2023-01-10T21:01:37.600Z,99829.28
2023-01-10T21:04:07.020Z,99827.56
2023-01-10T21:06:36.597Z,99821.63
2023-01-10T21:09:13.255Z,99833.00
2023-01-10T21:11:58.108Z,99827.69
2023-01-10T21:14:33.359Z,99843.06
2023-01-10T21:17:03.229Z,99833.06
2023-01-10T21:19:31.293Z,99835.88
2023-01-10T21:21:58.760Z,99825.09
2023-01-10T21:24:27.683Z,99829.13
2023-01-10T21:26:55.262Z,99831.19
2023-01-10T21:30:08.346Z,99832.59
2023-01-10T21:32:52.744Z,99842.44
2023-01-10T21:35:24.614Z,99831.97
2023-01-10T21:37:54.486Z,99830.09
2023-01-10T21:40:22.954Z,99833.53
2023-01-10T21:42:52.162Z,99838.69
2023-01-10T21:45:22.807Z,99838.06
2023-01-10T21:47:51.216Z,99843.41
2023-01-10T21:50:22.327Z,99844.94
2023-01-10T21:52:50.235Z,99842.28
2023-01-10T21:55:18.293Z,99841.19
2023-01-10T21:57:46.002Z,99843.53
2023-01-10T22:00:14.607Z,99836.16
2023-01-10T22:02:42.459Z,99842.59
2023-01-10T22:05:11.412Z,99848.84
2023-01-10T22:07:39.211Z,99838.97
2023-01-10T22:10:09.400Z,99841.94
2023-01-10T22:12:37.101Z,99846.63
2023-01-10T22:15:05.937Z,99840.84
2023-01-10T22:17:33.972Z,99840.69
2023-01-10T22:20:01.872Z,99845.25
2023-01-10T22:22:29.448Z,99841.59
2023-01-10T22:24:57.402Z,99848.06
2023-01-10T22:27:24.977Z,99838.63
2023-01-10T22:29:52.794Z,99846.00
2023-01-10T22:32:20.872Z,99838.47
2023-01-10T22:34:48.978Z,99827.97
2023-01-10T22:37:16.920Z,99840.69
2023-01-10T22:39:46.480Z,99831.44
2023-01-10T22:42:15.461Z,99838.97
2023-01-10T22:44:43.284Z,99837.25
2023-01-10T22:47:12.088Z,99832.56
2023-01-10T22:49:39.927Z,99843.66
2023-01-10T22:52:08.558Z,99830.81
2023-01-10T22:54:36.908Z,99836.94
2023-01-10T22:57:04.579Z,99841.16
2023-01-10T22:59:34.753Z,99837.28
2023-01-10T23:02:02.395Z,99834.59
2023-01-10T23:04:30.216Z,99837.41
2023-01-10T23:06:59.618Z,99838.97
2023-01-10T23:09:27.587Z,99839.44
2023-01-10T23:11:55.150Z,99836.94
2023-01-10T23:14:22.980Z,99842.09
2023-01-10T23:16:50.451Z,99860.41
2023-01-10T23:19:18.349Z,99838.19
2023-01-10T23:21:45.833Z,99839.13
2023-01-10T23:24:15.824Z,99848.84
2023-01-10T23:26:43.302Z,99845.88
2023-01-10T23:29:11.066Z,99858.72
2023-01-10T23:31:38.534Z,99851.66
2023-01-10T23:34:06.378Z,99850.88
2023-01-10T23:36:33.963Z,99861.53
2023-01-10T23:39:01.848Z,99840.25
2023-01-10T23:41:29.462Z,99851.50
2023-01-10T23:43:57.420Z,99843.06
2023-01-10T23:46:25.196Z,99849.00
2023-01-10T23:48:53.008Z,99849.31
2023-01-10T23:51:20.672Z,99837.59
2023-01-10T23:53:48.607Z,99849.03
2023-01-10T23:56:16.544Z,99840.56
2023-01-10T23:58:44.954Z,99851.38
